Time;durP1;ratioP1;P1;durP2;ratioP2;P2;SDS_P1;SDS_P2;PMS_P1;PMS_P2;Temp;Humidity;BMP_temperature;BMP_pressure;BME280_temperature;BME280_humidity;BME280_pressure;Samples;Min_cycle;Max_cycle;Signal;HPM_P1;HPM_P2
2023/03/15 09:34:37;;;;;;;0.20;0.20;;;;;;;;;;908745;19;70549;-92
2023/03/15 09:37:08;;;;;;;0.20;0.20;;;;;;;;;;7391854;19;20137;-91
2023/03/15 09:39:35;;;;;;;0.20;0.20;;;;;;;;;;7393568;19;20121;-90
2023/03/15 09:42:03;;;;;;;0.30;0.30;;;;;;;;;;7393887;19;20136;-91
2023/03/15 09:44:42;;;;;;;0.20;0.20;;;;;;;;;;7393196;19;20137;-93
2023/03/15 09:47:27;;;;;;;0.30;0.30;;;;;;;;;;7398890;19;20152;-94
2023/03/15 09:50:03;;;;;;;0.23;0.23;;;;;;;;;;7419506;19;20129;-94
2023/03/15 09:52:34;;;;;;;0.30;0.30;;;;;;;;;;7422155;19;20159;-93
2023/03/15 09:55:10;;;;;;;0.20;0.20;;;;;;;;;;7421070;19;20169;-93
2023/03/15 09:57:46;;;;;;;0.30;0.30;;;;;;;;;;7419119;19;20129;-92
2023/03/15 10:00:37;;;;;;;0.30;0.30;;;;;;;;;;7403891;19;20151;-93
2023/03/15 10:03:08;;;;;;;0.20;0.20;;;;;;;;;;7395898;19;20125;-91
2023/03/15 10:05:44;;;;;;;0.30;0.30;;;;;;;;;;7393793;19;20635;-91
2023/03/15 10:08:16;;;;;;;0.30;0.30;;;;;;;;;;7391218;19;20155;-92
2023/03/15 10:11:11;;;;;;;0.30;0.30;;;;;;;;;;7390289;19;20129;-92
2023/03/15 10:13:57;;;;;;;0.30;0.30;;;;;;;;;;7394099;19;20160;-93
2023/03/15 10:16:40;;;;;;;0.20;0.20;;;;;;;;;;7389864;19;20172;-92
2023/03/15 10:19:30;;;;;;;0.30;0.30;;;;;;;;;;7393443;19;20129;-91
2023/03/15 10:22:13;;;;;;;0.23;0.23;;;;;;;;;;7395100;19;20133;-92
2023/03/15 10:24:45;;;;;;;0.27;0.27;;;;;;;;;;7423044;19;20165;-93
2023/03/15 10:27:34;;;;;;;0.30;0.30;;;;;;;;;;7427553;19;20167;-93
2023/03/15 10:30:14;;;;;;;0.30;0.30;;;;;;;;;;7412669;19;20196;-92
2023/03/15 10:32:43;;;;;;;0.20;0.20;;;;;;;;;;7401361;19;20159;-93
2023/03/15 10:35:15;;;;;;;0.40;0.40;;;;;;;;;;7423703;19;20164;-92
2023/03/15 10:37:42;;;;;;;0.20;0.20;;;;;;;;;;7425751;19;20163;-94
2023/03/15 10:40:15;;;;;;;0.27;0.27;;;;;;;;;;7426282;19;20159;-92
2023/03/15 10:42:43;;;;;;;0.30;0.30;;;;;;;;;;7406075;19;20492;-93
2023/03/15 10:45:28;;;;;;;0.30;0.30;;;;;;;;;;7392214;19;20156;-92
2023/03/15 10:47:55;;;;;;;0.27;0.27;;;;;;;;;;7390891;19;20152;-90
2023/03/15 10:50:29;;;;;;;0.20;0.20;;;;;;;;;;7393266;19;20137;-91
2023/03/15 10:52:57;;;;;;;0.23;0.23;;;;;;;;;;7400417;19;20148;-92
2023/03/15 10:55:33;;;;;;;0.30;0.30;;;;;;;;;;7398102;19;20549;-92
2023/03/15 10:58:17;;;;;;;0.20;0.20;;;;;;;;;;7399435;19;20144;-89
2023/03/15 11:00:50;;;;;;;0.30;0.30;;;;;;;;;;7400623;19;20155;-89
2023/03/15 11:03:24;;;;;;;0.50;0.50;;;;;;;;;;7403746;19;20639;-89
2023/03/15 11:05:54;;;;;;;0.20;0.20;;;;;;;;;;7401289;19;20224;-88
2023/03/15 11:08:23;;;;;;;0.50;0.50;;;;;;;;;;7402406;19;20534;-88
2023/03/15 11:10:58;;;;;;;0.30;0.30;;;;;;;;;;7405056;19;20492;-88
2023/03/15 11:13:26;;;;;;;0.30;0.30;;;;;;;;;;7405068;19;20152;-88
2023/03/15 11:16:00;;;;;;;0.30;0.30;;;;;;;;;;7401051;19;20191;-87
2023/03/15 11:18:33;;;;;;;0.30;0.30;;;;;;;;;;7405862;19;20152;-88
2023/03/15 11:21:03;;;;;;;0.30;0.30;;;;;;;;;;7406362;19;20168;-87
2023/03/15 11:23:36;;;;;;;0.30;0.30;;;;;;;;;;7407314;19;20160;-88
2023/03/15 11:26:05;;;;;;;0.30;0.30;;;;;;;;;;7404588;19;20165;-87
2023/03/15 11:28:34;;;;;;;0.30;0.30;;;;;;;;;;7405756;19;20141;-89
2023/03/15 11:31:03;;;;;;;0.40;0.40;;;;;;;;;;7405157;19;20144;-90
2023/03/15 11:33:40;;;;;;;0.40;0.40;;;;;;;;;;7406360;19;20154;-88
2023/03/15 11:36:13;;;;;;;0.30;0.30;;;;;;;;;;7402248;19;20195;-89
2023/03/15 11:38:44;;;;;;;0.30;0.30;;;;;;;;;;7402452;19;20141;-91
2023/03/15 11:41:36;;;;;;;0.30;0.30;;;;;;;;;;7400088;19;20635;-91
2023/03/15 11:44:09;;;;;;;1.00;0.60;;;;;;;;;;7400742;19;20137;-90
2023/03/15 11:46:46;;;;;;;0.30;0.30;;;;;;;;;;7401520;19;20639;-88
2023/03/15 11:49:27;;;;;;;0.30;0.30;;;;;;;;;;7404576;19;20168;-88
2023/03/15 11:51:54;;;;;;;0.82;0.82;;;;;;;;;;7403783;19;20515;-88
2023/03/15 11:54:21;;;;;;;0.30;0.30;;;;;;;;;;7400257;19;20133;-89
2023/03/15 11:56:56;;;;;;;0.40;0.40;;;;;;;;;;7403102;19;20137;-89
2023/03/15 11:59:36;;;;;;;0.30;0.30;;;;;;;;;;7405006;19;20132;-89
2023/03/15 12:02:09;;;;;;;0.30;0.30;;;;;;;;;;7404995;19;20176;-89
2023/03/15 12:04:38;;;;;;;0.30;0.30;;;;;;;;;;7406376;19;20137;-89
2023/03/15 12:07:23;;;;;;;0.32;0.32;;;;;;;;;;7403676;19;20144;-87
2023/03/15 12:09:51;;;;;;;0.30;0.30;;;;;;;;;;7399480;19;20133;-87
2023/03/15 12:12:23;;;;;;;0.30;0.30;;;;;;;;;;7401851;19;20148;-88
2023/03/15 12:15:18;;;;;;;0.30;0.30;;;;;;;;;;7399733;19;20176;-88
2023/03/15 12:17:53;;;;;;;0.30;0.30;;;;;;;;;;7401418;19;20149;-87
2023/03/15 12:20:33;;;;;;;0.30;0.30;;;;;;;;;;7400265;19;20604;-88
2023/03/15 12:23:18;;;;;;;0.20;0.20;;;;;;;;;;7400390;19;20145;-87
2023/03/15 12:25:56;;;;;;;0.30;0.30;;;;;;;;;;7400263;19;20149;-86
2023/03/15 12:28:49;;;;;;;0.30;0.30;;;;;;;;;;7399482;19;20713;-88
2023/03/15 12:31:16;;;;;;;0.20;0.20;;;;;;;;;;7400075;19;20164;-87
2023/03/15 12:33:49;;;;;;;0.30;0.30;;;;;;;;;;7399822;19;20156;-87
2023/03/15 12:36:34;;;;;;;0.32;0.32;;;;;;;;;;7399952;19;20172;-87
2023/03/15 12:39:35;;;;;;;0.30;0.30;;;;;;;;;;7402522;19;20155;-87
2023/03/15 12:42:03;;;;;;;0.20;0.20;;;;;;;;;;7402182;19;20247;-88
2023/03/15 12:44:32;;;;;;;0.30;0.30;;;;;;;;;;7401168;19;20175;-88
2023/03/15 12:47:00;;;;;;;0.90;0.75;;;;;;;;;;7402251;19;20133;-88
2023/03/15 12:49:28;;;;;;;0.43;0.43;;;;;;;;;;7402129;19;20137;-88
2023/03/15 12:52:00;;;;;;;0.35;0.35;;;;;;;;;;7402114;19;20140;-90
2023/03/15 12:54:46;;;;;;;0.38;0.38;;;;;;;;;;7402077;19;20121;-88
2023/03/15 12:57:17;;;;;;;0.50;0.50;;;;;;;;;;7400438;19;20121;-88
2023/03/15 12:59:49;;;;;;;0.30;0.30;;;;;;;;;;7399845;19;20137;-89
2023/03/15 13:02:28;;;;;;;0.30;0.30;;;;;;;;;;7401961;19;20133;-89
2023/03/15 13:05:08;;;;;;;0.30;0.30;;;;;;;;;;7397411;19;20240;-88
2023/03/15 13:07:54;;;;;;;0.30;0.30;;;;;;;;;;7396866;19;20188;-87
2023/03/15 13:10:38;;;;;;;0.30;0.30;;;;;;;;;;7397125;19;20879;-88
2023/03/15 13:13:32;;;;;;;0.30;0.30;;;;;;;;;;7401882;19;20483;-88
2023/03/15 13:16:32;;;;;;;0.30;0.30;;;;;;;;;;7398659;19;20188;-89
2023/03/15 13:19:15;;;;;;;0.40;0.40;;;;;;;;;;7400972;19;20133;-88
2023/03/15 13:21:58;;;;;;;0.52;0.52;;;;;;;;;;7398436;19;20552;-91
2023/03/15 13:24:51;;;;;;;0.30;0.30;;;;;;;;;;7400495;19;20137;-90
2023/03/15 13:27:37;;;;;;;0.30;0.30;;;;;;;;;;7401094;19;20133;-89
2023/03/15 13:30:28;;;;;;;0.30;0.30;;;;;;;;;;7400553;19;20666;-89
2023/03/15 13:33:28;;;;;;;0.30;0.30;;;;;;;;;;7401200;19;20153;-90
2023/03/15 13:36:13;;;;;;;0.43;0.43;;;;;;;;;;7398325;19;20187;-89
2023/03/15 13:38:51;;;;;;;0.30;0.30;;;;;;;;;;7399798;19;20140;-89
2023/03/15 13:41:29;;;;;;;0.30;0.30;;;;;;;;;;7401200;19;20551;-89
2023/03/15 13:44:01;;;;;;;0.30;0.30;;;;;;;;;;7401193;19;20155;-91
2023/03/15 13:46:29;;;;;;;0.20;0.20;;;;;;;;;;7399601;19;20168;-90
2023/03/15 13:48:56;;;;;;;0.35;0.35;;;;;;;;;;7401767;19;20503;-89
2023/03/15 13:51:29;;;;;;;0.30;0.30;;;;;;;;;;7400120;19;20502;-90
2023/03/15 13:54:01;;;;;;;0.30;0.30;;;;;;;;;;7400130;19;20163;-89
2023/03/15 13:56:36;;;;;;;0.30;0.30;;;;;;;;;;7396629;19;20180;-89
2023/03/15 13:59:15;;;;;;;0.30;0.30;;;;;;;;;;7399592;19;20156;-89
2023/03/15 14:01:41;;;;;;;0.20;0.20;;;;;;;;;;7398662;19;20140;-89
2023/03/15 14:04:14;;;;;;;0.30;0.30;;;;;;;;;;7398005;19;20153;-89
2023/03/15 14:06:40;;;;;;;0.40;0.40;;;;;;;;;;7397758;19;20165;-89
2023/03/15 14:09:14;;;;;;;0.30;0.30;;;;;;;;;;7399019;19;20144;-89
2023/03/15 14:11:43;;;;;;;0.28;0.28;;;;;;;;;;7398949;19;20141;-89
2023/03/15 14:14:20;;;;;;;0.25;0.25;;;;;;;;;;7399145;19;20164;-89
2023/03/15 14:16:47;;;;;;;0.32;0.32;;;;;;;;;;7398381;19;20167;-90
2023/03/15 14:19:34;;;;;;;0.30;0.30;;;;;;;;;;7397575;19;20660;-90
2023/03/15 14:22:04;;;;;;;0.38;0.38;;;;;;;;;;7391055;19;20204;-90
2023/03/15 14:24:39;;;;;;;0.30;0.30;;;;;;;;;;7390819;19;20137;-91
2023/03/15 14:27:08;;;;;;;0.32;0.32;;;;;;;;;;7396100;19;20136;-92
2023/03/15 14:29:37;;;;;;;0.50;0.50;;;;;;;;;;7397133;19;20141;-92
2023/03/15 14:32:06;;;;;;;0.30;0.30;;;;;;;;;;7397086;19;20148;-89
2023/03/15 14:34:36;;;;;;;0.28;0.28;;;;;;;;;;7402486;19;20170;-89
2023/03/15 14:37:08;;;;;;;0.30;0.30;;;;;;;;;;7402778;19;20141;-89
2023/03/15 14:39:40;;;;;;;0.30;0.30;;;;;;;;;;7405269;19;20141;-89
2023/03/15 14:42:10;;;;;;;0.20;0.20;;;;;;;;;;7405233;19;20133;-88
2023/03/15 14:44:37;;;;;;;0.30;0.30;;;;;;;;;;7404447;19;20175;-87
2023/03/15 14:47:15;;;;;;;0.30;0.30;;;;;;;;;;7403549;19;20128;-87
2023/03/15 14:49:41;;;;;;;0.30;0.30;;;;;;;;;;7404212;19;20144;-88
2023/03/15 14:52:11;;;;;;;0.20;0.20;;;;;;;;;;7401471;19;20168;-89
2023/03/15 14:54:49;;;;;;;0.30;0.30;;;;;;;;;;7400525;19;20611;-90
2023/03/15 14:57:16;;;;;;;0.30;0.30;;;;;;;;;;7401563;19;20167;-92
2023/03/15 14:59:42;;;;;;;0.30;0.30;;;;;;;;;;7399701;19;20141;-90
2023/03/15 15:02:15;;;;;;;0.30;0.30;;;;;;;;;;7403569;19;20635;-89
2023/03/15 15:04:42;;;;;;;0.30;0.30;;;;;;;;;;7401013;19;20173;-89
2023/03/15 15:07:13;;;;;;;0.40;0.40;;;;;;;;;;7403211;19;20133;-89
2023/03/15 15:09:46;;;;;;;0.30;0.30;;;;;;;;;;7404573;19;20175;-87
2023/03/15 15:12:13;;;;;;;0.30;0.30;;;;;;;;;;7403895;19;20133;-86
2023/03/15 15:14:41;;;;;;;0.30;0.30;;;;;;;;;;7398592;19;20185;-89
2023/03/15 15:17:08;;;;;;;0.50;0.50;;;;;;;;;;7397176;19;20140;-90
2023/03/15 15:19:37;;;;;;;0.30;0.30;;;;;;;;;;7397263;19;20153;-92
2023/03/15 15:22:03;;;;;;;0.30;0.30;;;;;;;;;;7397010;19;20137;-90
2023/03/15 15:24:30;;;;;;;0.20;0.20;;;;;;;;;;7397552;19;20745;-91
2023/03/15 15:26:57;;;;;;;0.30;0.30;;;;;;;;;;7396983;19;20604;-90
2023/03/15 15:29:24;;;;;;;0.30;0.30;;;;;;;;;;7396384;19;20140;-91
2023/03/15 15:31:50;;;;;;;0.20;0.20;;;;;;;;;;7396219;19;20496;-92
2023/03/15 15:34:17;;;;;;;0.30;0.30;;;;;;;;;;7397852;19;20141;-90
2023/03/15 15:36:55;;;;;;;0.20;0.20;;;;;;;;;;7396860;19;20472;-91
2023/03/15 15:39:28;;;;;;;0.30;0.30;;;;;;;;;;7396733;19;20216;-93
2023/03/15 15:42:08;;;;;;;0.30;0.30;;;;;;;;;;7399377;19;20153;-92
2023/03/15 15:47:18;;;;;;;0.30;0.30;;;;;;;;;;7398256;19;20148;-90
2023/03/15 15:50:48;;;;;;;0.30;0.30;;;;;;;;;;7395262;19;20264;-93
2023/03/15 15:53:17;;;;;;;0.30;0.30;;;;;;;;;;7395802;19;20145;-94
2023/03/15 15:58:48;;;;;;;0.30;0.30;;;;;;;;;;7397042;19;20576;-94
2023/03/15 16:01:15;;;;;;;0.20;0.20;;;;;;;;;;7397669;19;20151;-93
2023/03/15 16:03:42;;;;;;;0.30;0.30;;;;;;;;;;7399666;19;20141;-93
2023/03/15 16:06:17;;;;;;;0.30;0.30;;;;;;;;;;7396064;19;20168;-93
2023/03/15 16:08:45;;;;;;;0.30;0.30;;;;;;;;;;7399095;19;20167;-93
2023/03/15 16:11:12;;;;;;;0.30;0.30;;;;;;;;;;7397631;19;20133;-93
2023/03/15 16:13:39;;;;;;;0.40;0.40;;;;;;;;;;7400309;19;20162;-93
2023/03/15 16:16:10;;;;;;;0.30;0.30;;;;;;;;;;7396910;19;20176;-94
2023/03/15 16:18:37;;;;;;;0.50;0.50;;;;;;;;;;7397018;19;20141;-93
2023/03/15 16:21:03;;;;;;;0.40;0.40;;;;;;;;;;7414748;19;20139;-92
2023/03/15 16:23:30;;;;;;;0.30;0.30;;;;;;;;;;7424301;19;20137;-95
2023/03/15 16:25:56;;;;;;;0.20;0.20;;;;;;;;;;7423325;19;20168;-93
2023/03/15 16:28:23;;;;;;;0.30;0.30;;;;;;;;;;7424949;19;20184;-95
2023/03/15 16:30:50;;;;;;;0.30;0.30;;;;;;;;;;7410313;19;20165;-93
2023/03/15 16:33:19;;;;;;;0.20;0.20;;;;;;;;;;7404154;19;20156;-95
2023/03/15 16:35:48;;;;;;;0.30;0.30;;;;;;;;;;7402346;19;20195;-93
2023/03/15 16:38:22;;;;;;;0.20;0.20;;;;;;;;;;7407051;19;20141;-93
2023/03/15 16:40:51;;;;;;;0.30;0.30;;;;;;;;;;7405170;19;20136;-92
2023/03/15 16:43:18;;;;;;;0.30;0.30;;;;;;;;;;7405212;19;20145;-93
2023/03/15 16:45:45;;;;;;;0.40;0.40;;;;;;;;;;7401337;19;20153;-93
2023/03/15 16:48:11;;;;;;;0.37;0.37;;;;;;;;;;7412227;19;20148;-93
2023/03/15 16:50:39;;;;;;;0.60;0.60;;;;;;;;;;7421333;19;20129;-95
2023/03/15 16:53:08;;;;;;;0.30;0.30;;;;;;;;;;7425387;19;20156;-94
2023/03/15 16:55:35;;;;;;;1.47;0.93;;;;;;;;;;7422712;19;20141;-94
2023/03/15 16:58:03;;;;;;;0.30;0.30;;;;;;;;;;7424672;19;20121;-95
2023/03/15 17:00:30;;;;;;;0.40;0.40;;;;;;;;;;7425654;19;20150;-93
2023/03/15 17:03:00;;;;;;;0.40;0.40;;;;;;;;;;7425687;19;20170;-94
2023/03/15 17:05:31;;;;;;;0.20;0.20;;;;;;;;;;7419370;19;20180;-93
2023/03/15 17:07:59;;;;;;;0.30;0.30;;;;;;;;;;7425201;19;20125;-95
2023/03/15 17:10:29;;;;;;;0.87;0.87;;;;;;;;;;7424997;19;20503;-95
2023/03/15 17:12:59;;;;;;;0.30;0.30;;;;;;;;;;7425567;19;20140;-93
2023/03/15 17:15:26;;;;;;;0.40;0.40;;;;;;;;;;7425166;19;20145;-95
2023/03/15 17:17:56;;;;;;;0.30;0.30;;;;;;;;;;7424793;19;20165;-93
2023/03/15 17:20:27;;;;;;;0.40;0.40;;;;;;;;;;7423623;19;20137;-93
2023/03/15 17:22:59;;;;;;;0.50;0.50;;;;;;;;;;7424803;19;20574;-93
2023/03/15 17:25:30;;;;;;;0.37;0.37;;;;;;;;;;7424313;19;20152;-93
2023/03/15 17:27:56;;;;;;;0.30;0.30;;;;;;;;;;7425423;19;20125;-94
2023/03/15 17:30:28;;;;;;;0.30;0.30;;;;;;;;;;7424596;19;20129;-96
2023/03/15 17:32:55;;;;;;;1.90;0.60;;;;;;;;;;7425469;19;20133;-95
2023/03/15 17:35:26;;;;;;;0.30;0.30;;;;;;;;;;7424093;19;20187;-93
2023/03/15 17:37:53;;;;;;;0.30;0.30;;;;;;;;;;7424825;19;20129;-95
2023/03/15 17:40:29;;;;;;;1.40;0.83;;;;;;;;;;7424752;19;20161;-94
2023/03/15 17:42:59;;;;;;;0.27;0.27;;;;;;;;;;7425408;19;20117;-94
2023/03/15 17:45:27;;;;;;;0.20;0.20;;;;;;;;;;7424045;19;20177;-94
2023/03/15 17:47:55;;;;;;;0.37;0.37;;;;;;;;;;7424813;19;20148;-94
2023/03/15 17:50:24;;;;;;;0.33;0.33;;;;;;;;;;7425011;19;20154;-94
2023/03/15 17:52:56;;;;;;;0.40;0.40;;;;;;;;;;7424808;19;20148;-94
2023/03/15 17:55:25;;;;;;;0.30;0.30;;;;;;;;;;7424074;19;20227;-94
2023/03/15 17:57:51;;;;;;;0.60;0.60;;;;;;;;;;7424222;19;20156;-93
2023/03/15 18:00:22;;;;;;;0.40;0.40;;;;;;;;;;7427274;19;20121;-94
2023/03/15 18:02:49;;;;;;;0.30;0.30;;;;;;;;;;7432237;19;20129;-94
2023/03/15 18:05:24;;;;;;;0.40;0.40;;;;;;;;;;7430434;19;20133;-93
2023/03/15 18:07:51;;;;;;;0.30;0.30;;;;;;;;;;7431699;19;20131;-94
2023/03/15 18:10:32;;;;;;;0.30;0.30;;;;;;;;;;7432086;19;20141;-94
2023/03/15 18:12:59;;;;;;;0.20;0.20;;;;;;;;;;7431714;19;20140;-94
2023/03/15 18:15:26;;;;;;;0.20;0.20;;;;;;;;;;7428250;19;20153;-94
2023/03/15 18:17:53;;;;;;;0.30;0.30;;;;;;;;;;7426611;19;20197;-94
2023/03/15 18:20:26;;;;;;;0.20;0.20;;;;;;;;;;7430045;19;20143;-95
2023/03/15 18:22:53;;;;;;;0.50;0.50;;;;;;;;;;7430719;19;20133;-93
2023/03/15 18:25:20;;;;;;;0.30;0.30;;;;;;;;;;7428781;19;20157;-94
2023/03/15 18:27:47;;;;;;;0.30;0.30;;;;;;;;;;7429717;19;20125;-94
2023/03/15 18:30:16;;;;;;;0.27;0.27;;;;;;;;;;7430456;19;20133;-96
2023/03/15 18:32:43;;;;;;;0.20;0.20;;;;;;;;;;7430134;19;20129;-93
2023/03/15 18:35:18;;;;;;;0.30;0.30;;;;;;;;;;7430599;19;20133;-94
2023/03/15 18:37:45;;;;;;;1.73;0.90;;;;;;;;;;7430519;19;20178;-95
2023/03/15 18:40:14;;;;;;;0.40;0.40;;;;;;;;;;7431714;19;20132;-94
2023/03/15 18:42:41;;;;;;;0.30;0.30;;;;;;;;;;7431797;19;20161;-93
2023/03/15 18:45:20;;;;;;;0.20;0.20;;;;;;;;;;7433158;19;20145;-95
2023/03/15 18:47:47;;;;;;;0.40;0.40;;;;;;;;;;7433537;19;20144;-96
2023/03/15 18:50:15;;;;;;;0.20;0.20;;;;;;;;;;7433935;19;20129;-96
2023/03/15 18:52:45;;;;;;;0.30;0.30;;;;;;;;;;7433416;19;20133;-96
2023/03/15 18:55:14;;;;;;;0.30;0.30;;;;;;;;;;7432627;19;20153;-95
2023/03/15 18:57:42;;;;;;;0.20;0.20;;;;;;;;;;7431692;19;20136;-96
2023/03/15 19:00:12;;;;;;;0.30;0.30;;;;;;;;;;7432704;19;20132;-95
2023/03/15 19:02:43;;;;;;;0.23;0.23;;;;;;;;;;7432399;19;20137;-95
2023/03/15 19:05:12;;;;;;;0.30;0.30;;;;;;;;;;7430524;19;20152;-96
2023/03/15 19:07:40;;;;;;;0.20;0.20;;;;;;;;;;7430782;19;20129;-94
2023/03/15 19:10:12;;;;;;;0.20;0.20;;;;;;;;;;7432262;19;20125;-96
2023/03/15 19:12:39;;;;;;;0.60;0.60;;;;;;;;;;7429104;19;20137;-96
2023/03/15 19:15:10;;;;;;;0.83;0.83;;;;;;;;;;7428505;19;20174;-96
2023/03/15 19:17:38;;;;;;;0.33;0.33;;;;;;;;;;7430160;19;20173;-95
2023/03/15 19:20:23;;;;;;;0.30;0.30;;;;;;;;;;7431030;19;20177;-96
